Time;durP1;ratioP1;P1;durP2;ratioP2;P2;SDS_P1;SDS_P2;PMS_P1;PMS_P2;Temp;Humidity;BMP_temperature;BMP_pressure;BME280_temperature;BME280_humidity;BME280_pressure;Samples;Min_cycle;Max_cycle;Signal;HPM_P1;HPM_P2
2022/08/12 00:44:13;;;;;;;;;13.75;10.75;;;;;25.86;28.09;100966.50;5063514;27;45260;-56
2022/08/12 00:46:49;;;;;;;;;12.00;10.75;;;;;25.83;28.31;100966.75;5067938;27;45420;-57
2022/08/12 00:49:15;;;;;;;;;13.75;11.00;;;;;25.78;28.26;100959.09;5068502;28;45308;-56
2022/08/12 00:54:26;;;;;;;;;12.00;8.50;;;;;25.73;27.88;100961.38;5073285;28;45380;-57
2022/08/12 00:56:53;;;;;;;;;13.25;12.00;;;;;25.72;28.30;100959.66;5067053;28;69984;-57
2022/08/12 00:59:19;;;;;;;;;13.25;13.00;;;;;25.69;28.57;100960.78;5074810;28;45519;-57
2022/08/12 01:01:46;;;;;;;;;12.00;12.00;;;;;25.66;28.37;100962.88;5065490;28;45335;-57
2022/08/12 01:12:31;;;;;;;;;12.75;12.25;;;;;25.53;28.53;100947.88;5068175;28;45577;-57
2022/08/12 01:14:56;;;;;;;;;12.00;11.00;;;;;25.51;28.88;100940.94;5067237;27;45354;-58
2022/08/12 01:17:22;;;;;;;;;14.00;12.50;;;;;25.48;28.81;100950.09;5064291;28;45358;-57
2022/08/12 01:19:51;;;;;;;;;11.50;11.50;;;;;25.47;28.71;100951.06;5063674;28;46763;-57
2022/08/12 01:22:31;;;;;;;;;15.25;13.00;;;;;25.47;28.67;100950.22;5057302;28;45762;-57
2022/08/12 01:25:09;;;;;;;;;12.75;11.50;;;;;25.46;28.75;100957.44;5069522;27;45919;-57
2022/08/12 01:27:38;;;;;;;;;15.00;13.00;;;;;25.44;28.52;100956.69;5063105;27;45460;-57
2022/08/12 01:30:06;;;;;;;;;13.50;13.00;;;;;25.42;28.88;100961.34;5065774;27;46516;-57
2022/08/12 01:32:36;;;;;;;;;15.50;13.75;;;;;25.42;28.87;100952.44;5076118;27;45424;-57
2022/08/12 01:35:09;;;;;;;;;13.75;10.50;;;;;25.38;29.10;100951.88;5067849;27;45215;-57
2022/08/12 01:37:44;;;;;;;;;14.25;12.00;;;;;25.32;29.24;100955.94;5067387;28;45614;-56
2022/08/12 01:40:11;;;;;;;;;12.00;12.00;;;;;25.28;29.35;100941.09;5072137;27;46357;-57
2022/08/12 01:42:47;;;;;;;;;15.50;13.00;;;;;25.27;29.24;100949.25;5069867;28;45346;-57
2022/08/12 01:45:16;;;;;;;;;15.00;12.00;;;;;25.24;29.11;100939.63;5068125;28;45411;-57
2022/08/12 01:48:08;;;;;;;;;13.00;11.50;;;;;25.24;29.09;100939.63;5074221;28;45485;-56
2022/08/12 01:50:55;;;;;;;;;13.50;12.75;;;;;25.24;29.42;100944.16;5070715;28;47151;-57
2022/08/12 01:53:24;;;;;;;;;16.25;15.00;;;;;25.22;29.10;100946.13;5071659;27;45784;-56
2022/08/12 01:55:51;;;;;;;;;14.75;14.75;;;;;25.20;29.10;100946.25;5060729;28;45348;-56
2022/08/12 01:59:44;;;;;;;;;18.50;16.75;;;;;25.20;29.52;100944.41;5065976;27;71963;-57
2022/08/12 02:01:14;;;;;;;;;18.25;16.75;;;;;25.18;29.15;100946.38;5067255;27;45384;-57
2022/08/12 02:13:12;;;;;;;;;17.25;14.25;;;;;25.06;29.52;100936.69;5067670;28;46023;-57
2022/08/12 02:15:44;;;;;;;;;13.00;12.25;;;;;25.02;29.44;100932.59;5067540;28;45520;-57
2022/08/12 02:18:21;;;;;;;;;17.50;13.75;;;;;24.97;29.74;100932.97;5071386;28;45391;-57
2022/08/12 02:20:55;;;;;;;;;12.00;12.00;;;;;24.96;29.64;100933.94;5068571;28;45315;-57
2022/08/12 02:23:25;;;;;;;;;15.50;12.50;;;;;24.96;29.46;100930.41;5070069;27;46148;-57
2022/08/12 02:25:53;;;;;;;;;13.00;12.00;;;;;24.95;29.53;100926.91;5080564;27;45760;-56
2022/08/12 02:28:19;;;;;;;;;12.00;11.25;;;;;24.93;29.95;100930.69;5062986;28;45271;-56
2022/08/12 02:30:44;;;;;;;;;12.00;11.00;;;;;24.89;29.75;100926.56;5061739;27;65901;-56
2022/08/12 02:33:10;;;;;;;;;16.25;11.50;;;;;24.86;29.60;100925.00;5065037;28;72894;-56
2022/08/12 02:35:38;;;;;;;;;13.00;12.00;;;;;24.83;30.02;100922.59;5063251;27;46514;-56
2022/08/12 02:38:06;;;;;;;;;11.00;10.75;;;;;24.80;29.92;100926.34;5069105;27;45402;-57
2022/08/12 02:40:36;;;;;;;;;11.50;11.25;;;;;24.75;30.04;100925.88;5059898;28;45250;-57
2022/08/12 02:43:11;;;;;;;;;13.00;12.00;;;;;24.73;30.60;100921.66;5058649;28;45193;-56
2022/08/12 02:45:52;;;;;;;;;10.00;10.00;;;;;24.67;30.65;100923.03;5065479;27;45640;-56
2022/08/12 02:48:45;;;;;;;;;10.75;10.00;;;;;24.62;29.87;100912.69;5069975;28;45501;-57
2022/08/12 02:51:12;;;;;;;;;14.00;12.25;;;;;24.61;30.30;100913.69;5061590;28;45569;-57
2022/08/12 02:53:37;;;;;;;;;14.00;11.50;;;;;24.58;30.37;100915.78;5064527;27;46276;-56
2022/08/12 02:56:04;;;;;;;;;11.25;10.50;;;;;24.56;30.39;100917.69;5071168;27;45580;-56
2022/08/12 02:58:34;;;;;;;;;13.75;12.00;;;;;24.52;30.36;100911.72;5079139;28;45318;-56
2022/08/12 03:01:01;;;;;;;;;15.00;13.75;;;;;24.49;30.07;100916.47;5068931;27;45478;-56
2022/08/12 03:03:32;;;;;;;;;11.00;10.50;;;;;24.49;30.77;100908.47;5075016;28;46236;-56
2022/08/12 03:06:05;;;;;;;;;13.75;12.00;;;;;24.44;30.38;100916.88;5063473;28;45549;-56
2022/08/12 03:08:36;;;;;;;;;13.75;12.25;;;;;24.41;30.50;100909.94;5070882;27;45455;-56
2022/08/12 03:11:08;;;;;;;;;12.50;11.75;;;;;24.41;30.90;100919.81;5080290;27;45533;-56
2022/08/12 03:13:37;;;;;;;;;14.75;13.25;;;;;24.34;30.55;100916.78;5081566;27;45955;-56
2022/08/12 03:16:03;;;;;;;;;11.25;11.25;;;;;24.34;30.58;100915.94;5080163;27;45826;-56
2022/08/12 03:18:30;;;;;;;;;14.25;12.00;;;;;24.35;30.39;100917.66;5056373;28;45391;-56
2022/08/12 03:20:58;;;;;;;;;12.50;11.75;;;;;24.35;30.47;100920.31;5074056;27;45245;-56
2022/08/12 03:23:24;;;;;;;;;11.75;11.25;;;;;24.33;30.70;100915.09;5071068;27;45563;-56
2022/08/12 03:25:51;;;;;;;;;12.75;12.75;;;;;24.33;30.89;100914.22;5068310;27;45757;-56
2022/08/12 03:28:49;;;;;;;;;13.00;10.50;;;;;24.30;30.86;100914.50;5063557;27;45279;-56
2022/08/12 03:31:05;;;;;;;;;13.25;12.25;;;;;24.26;30.67;100917.41;5068225;27;45216;-57
2022/08/12 03:33:36;;;;;;;;;11.75;9.75;;;;;24.25;30.95;100918.38;5062519;28;45404;-57
2022/08/12 03:36:06;;;;;;;;;14.25;14.25;;;;;24.23;30.91;100916.81;5070947;27;45472;-56
2022/08/12 03:38:36;;;;;;;;;13.25;12.75;;;;;24.21;31.16;100919.63;5073863;27;45655;-57
2022/08/12 04:00:46;;;;;;;;;13.25;12.75;;;;;24.05;31.42;100924.53;5072083;27;45489;-56
2022/08/12 04:05:56;;;;;;;;;12.00;12.00;;;;;23.98;31.36;100923.31;5068508;27;45488;-57
2022/08/12 04:08:25;;;;;;;;;13.50;11.50;;;;;23.96;31.66;100922.59;5070914;27;45599;-56
2022/08/12 04:13:36;;;;;;;;;13.50;11.75;;;;;23.95;31.26;100920.88;5067842;28;45251;-56
2022/08/12 04:16:03;;;;;;;;;13.25;13.00;;;;;23.93;32.04;100918.34;5069493;28;74870;-57
2022/08/12 04:18:28;;;;;;;;;15.50;13.00;;;;;23.90;31.37;100913.22;5064369;27;45311;-56
2022/08/12 04:20:54;;;;;;;;;12.50;11.25;;;;;23.88;31.80;100912.50;5075743;27;59058;-57
2022/08/12 04:23:20;;;;;;;;;13.75;10.25;;;;;23.84;31.76;100909.22;5074552;28;45599;-57
2022/08/12 04:25:46;;;;;;;;;15.50;12.00;;;;;23.82;31.96;100913.00;5064805;28;46585;-57
2022/08/12 04:28:11;;;;;;;;;16.00;13.75;;;;;23.80;32.26;100907.78;5064561;28;52251;-57
2022/08/12 04:30:39;;;;;;;;;15.00;11.75;;;;;23.78;31.84;100914.19;5065530;28;45314;-57
2022/08/12 04:33:07;;;;;;;;;13.75;11.50;;;;;23.77;31.84;100916.00;5088983;27;45496;-57
2022/08/12 04:35:33;;;;;;;;;14.25;11.00;;;;;23.75;31.96;100909.94;5070933;27;46274;-57
2022/08/12 04:37:59;;;;;;;;;13.75;12.00;;;;;23.74;31.93;100913.56;5067821;27;45503;-57
2022/08/12 04:40:25;;;;;;;;;14.75;13.50;;;;;23.72;32.17;100920.03;5073050;28;45256;-57
2022/08/12 04:42:51;;;;;;;;;11.75;10.25;;;;;23.67;31.95;100912.38;5068970;28;46803;-56
2022/08/12 04:45:19;;;;;;;;;13.00;13.00;;;;;23.64;32.36;100917.97;5074741;27;45375;-57
2022/08/12 04:47:46;;;;;;;;;11.00;11.00;;;;;23.64;32.34;100918.81;5063291;28;62522;-57
2022/08/12 04:50:16;;;;;;;;;11.50;9.75;;;;;23.62;32.50;100911.88;5072636;28;45274;-57
2022/08/12 04:52:41;;;;;;;;;13.50;12.25;;;;;23.58;32.47;100919.28;5065284;27;45591;-56
2022/08/12 04:55:09;;;;;;;;;12.25;12.00;;;;;23.55;32.44;100918.69;5071101;28;74552;-57
2022/08/12 04:57:35;;;;;;;;;13.25;13.25;;;;;23.52;32.63;100919.78;5068617;27;45828;-57
2022/08/12 05:00:00;;;;;;;;;10.75;10.50;;;;;23.50;32.46;100927.06;5062786;27;45359;-57
2022/08/12 05:02:26;;;;;;;;;11.00;10.75;;;;;23.47;32.34;100924.63;5063960;28;45562;-56
2022/08/12 05:04:55;;;;;;;;;12.50;11.00;;;;;23.44;32.41;100923.06;5070813;27;65165;-56
2022/08/12 05:07:22;;;;;;;;;11.50;10.75;;;;;23.43;32.96;100925.84;5061796;27;45410;-56
2022/08/12 05:09:48;;;;;;;;;14.00;11.25;;;;;23.42;32.38;100927.66;5070402;28;45223;-55
2022/08/12 05:12:17;;;;;;;;;13.25;11.75;;;;;23.42;32.78;100924.16;5067262;27;45197;-56
2022/08/12 05:14:42;;;;;;;;;14.50;12.50;;;;;23.45;32.94;100921.25;5072226;27;46894;-57
2022/08/12 05:17:08;;;;;;;;;14.00;14.00;;;;;23.45;32.89;100922.09;5068039;27;50173;-56
2022/08/12 05:19:34;;;;;;;;;13.75;12.00;;;;;23.47;33.17;100927.31;5066227;28;45488;-57
2022/08/12 05:21:59;;;;;;;;;13.25;13.00;;;;;23.45;32.43;100929.25;5067743;28;45339;-56
2022/08/12 05:24:24;;;;;;;;;11.00;10.50;;;;;23.44;32.72;100927.53;5071113;27;46200;-56
2022/08/12 05:26:51;;;;;;;;;13.25;12.50;;;;;23.45;33.11;100929.25;5067745;27;64197;-56
2022/08/12 05:29:16;;;;;;;;;13.50;11.50;;;;;23.46;32.60;100925.59;5060807;28;45592;-56
2022/08/12 05:31:42;;;;;;;;;11.25;9.75;;;;;23.45;33.52;100929.25;5059574;28;45429;-56
2022/08/12 05:34:10;;;;;;;;;13.25;11.50;;;;;23.44;32.52;100938.22;5034698;28;75601;-46
2022/08/12 05:36:35;;;;;;;;;16.50;11.00;;;;;23.44;32.45;100939.09;5060767;28;45443;-46
2022/08/12 05:39:00;;;;;;;;;13.00;10.00;;;;;23.46;33.40;100939.81;5058826;27;60310;-46
2022/08/12 05:41:28;;;;;;;;;11.25;11.25;;;;;23.54;33.70;100935.69;5067149;28;57365;-46
2022/08/12 05:43:58;;;;;;;;;14.25;13.00;;;;;23.59;36.40;100936.19;5064340;27;46057;-44
2022/08/12 05:46:25;;;;;;;;;13.00;12.00;;;;;23.64;33.07;100939.34;5070810;27;45691;-46
2022/08/12 05:48:55;;;;;;;;;14.25;10.75;;;;;23.66;35.45;100940.91;5062324;28;45513;-44
2022/08/12 05:51:24;;;;;;;;;14.75;12.50;;;;;23.72;35.26;100941.41;5071326;27;45343;-44
2022/08/12 05:53:54;;;;;;;;;10.75;10.00;;;;;23.76;33.64;100938.38;5076271;28;46192;-43
2022/08/12 05:56:24;;;;;;;;;11.50;11.00;;;;;23.77;34.21;100942.72;5071760;27;45402;-47
2022/08/12 05:58:51;;;;;;;;;16.00;14.00;;;;;23.77;33.61;100942.72;5060343;27;45170;-44
2022/08/12 06:01:17;;;;;;;;;11.25;9.00;;;;;23.73;33.35;100949.31;5068849;28;45607;-45
2022/08/12 06:03:43;;;;;;;;;13.50;12.00;;;;;23.71;33.12;100940.56;5068475;28;46171;-42
2022/08/12 06:06:09;;;;;;;;;12.00;11.75;;;;;23.75;32.91;100941.16;5072743;27;45293;-44
2022/08/12 06:08:34;;;;;;;;;14.00;14.00;;;;;23.78;33.63;100946.25;5073169;27;45402;-45
2022/08/12 06:11:03;;;;;;;;;13.00;11.00;;;;;23.79;33.21;100943.47;5075181;27;61638;-45
2022/08/12 06:13:28;;;;;;;;;17.00;11.75;;;;;23.80;33.45;100942.53;5063496;27;47228;-45
2022/08/12 06:15:54;;;;;;;;;5.25;4.75;;;;;23.83;34.45;100944.09;5069391;28;45482;-44
2022/08/12 06:18:19;;;;;;;;;14.25;12.50;;;;;23.83;33.14;100939.63;5064900;27;45446;-43
2022/08/12 06:20:48;;;;;;;;;10.50;10.50;;;;;23.84;34.29;100937.78;5065940;28;45402;-43
2022/08/12 06:23:14;;;;;;;;;12.50;11.50;;;;;23.86;33.58;100941.19;5075961;28;46069;-43
2022/08/12 06:25:42;;;;;;;;;14.25;13.00;;;;;23.89;33.36;100938.28;5068911;27;45373;-42
2022/08/12 06:28:16;;;;;;;;;21.00;15.00;;;;;23.91;33.32;100941.66;5072613;28;45640;-42
2022/08/12 06:30:43;;;;;;;;;13.00;12.00;;;;;23.92;33.10;100939.84;5069735;27;45430;-42
2022/08/12 06:33:09;;;;;;;;;13.50;12.75;;;;;23.93;33.33;100939.72;5080183;27;46247;-42
2022/08/12 06:35:35;;;;;;;;;15.25;12.25;;;;;23.95;33.21;100943.13;5068311;27;45268;-42
2022/08/12 06:38:02;;;;;;;;;14.75;11.00;;;;;23.95;33.00;100947.63;5073549;28;45275;-42
2022/08/12 06:43:12;;;;;;;;;16.00;12.00;;;;;23.94;32.57;100948.56;5071407;28;45698;-42
2022/08/12 06:45:44;;;;;;;;;16.00;13.00;;;;;23.94;32.64;100951.25;5085252;27;45445;-57
2022/08/12 06:48:10;;;;;;;;;14.00;14.00;;;;;23.92;32.87;100954.06;5082022;27;45287;-57
2022/08/12 06:50:37;;;;;;;;;13.75;12.75;;;;;23.92;32.97;100943.38;5071713;27;45582;-58
2022/08/12 06:53:04;;;;;;;;;13.00;10.00;;;;;23.94;33.16;100945.91;5078940;27;45244;-58
2022/08/12 06:55:30;;;;;;;;;14.25;12.75;;;;;23.96;33.13;100944.00;5080115;27;45432;-58
2022/08/12 06:58:00;;;;;;;;;13.25;12.25;;;;;24.01;32.98;100950.66;5071531;27;45573;-58
2022/08/12 07:00:34;;;;;;;;;14.25;11.25;;;;;24.04;32.99;100950.38;5060245;28;45776;-57
2022/08/12 07:03:03;;;;;;;;;12.50;11.00;;;;;24.10;32.86;100953.53;5060522;28;47911;-59
2022/08/12 07:05:28;;;;;;;;;14.50;14.50;;;;;24.14;32.50;100941.66;5047381;28;45840;-60
2022/08/12 07:07:57;;;;;;;;;14.75;11.50;;;;;24.18;32.74;100943.94;5076257;27;45323;-58
2022/08/12 07:10:26;;;;;;;;;12.75;12.50;;;;;24.24;32.65;100942.56;5070563;27;45542;-59
2022/08/12 07:12:55;;;;;;;;;14.00;13.25;;;;;24.30;32.27;100944.75;5077325;28;46450;-58
2022/08/12 07:15:24;;;;;;;;;11.00;9.50;;;;;24.37;32.25;100948.63;5072041;27;46010;-59
2022/08/12 07:17:58;;;;;;;;;12.75;11.25;;;;;24.43;31.79;100940.13;5074435;27;45257;-59
2022/08/12 07:20:23;;;;;;;;;11.50;9.00;;;;;24.50;31.86;100936.94;5078860;27;45180;-59
2022/08/12 07:22:49;;;;;;;;;13.00;11.25;;;;;24.56;31.47;100939.09;5064892;27;72083;-58
2022/08/12 07:28:03;;;;;;;;;10.75;10.00;;;;;24.70;31.11;100940.63;5073320;27;45410;-58
2022/08/12 07:30:36;;;;;;;;;10.00;10.00;;;;;24.77;31.03;100939.16;5076450;28;45355;-59
2022/08/12 07:33:03;;;;;;;;;13.00;8.50;;;;;24.82;30.99;100936.94;5080620;27;46350;-58
2022/08/12 07:35:30;;;;;;;;;13.75;10.50;;;;;24.88;30.89;100925.72;5086428;27;45887;-58
2022/08/12 07:37:56;;;;;;;;;11.50;10.50;;;;;24.97;31.08;100932.97;5077505;27;45442;-58
2022/08/12 07:40:23;;;;;;;;;9.75;7.50;;;;;25.02;30.42;100930.75;5069239;27;45514;-58
2022/08/12 07:42:48;;;;;;;;;15.25;11.00;;;;;25.09;30.39;100932.91;5074220;27;45545;-58
2022/08/12 07:45:14;;;;;;;;;11.50;10.00;;;;;25.16;30.68;100932.25;5079699;27;46750;-58
2022/08/12 07:47:42;;;;;;;;;11.00;11.00;;;;;25.23;30.09;100929.03;5078395;27;45347;-59
2022/08/12 07:50:09;;;;;;;;;10.50;10.00;;;;;25.29;30.08;100934.75;5068865;27;45267;-59
2022/08/12 07:52:36;;;;;;;;;11.50;9.25;;;;;25.37;30.13;100934.09;5078502;27;47050;-58
2022/08/12 07:55:02;;;;;;;;;9.50;9.50;;;;;25.43;29.74;100920.19;5071955;27;45795;-58
2022/08/12 07:57:27;;;;;;;;;10.00;9.25;;;;;25.50;29.84;100931.22;5073456;27;45326;-59
2022/08/12 07:59:52;;;;;;;;;10.25;8.25;;;;;25.56;29.86;100926.13;5063972;27;45486;-58
2022/08/12 08:02:18;;;;;;;;;9.25;9.25;;;;;25.62;29.51;100926.59;5070245;28;66844;-59
2022/08/12 08:04:55;;;;;;;;;9.25;8.50;;;;;25.68;29.50;100934.94;5069346;28;45260;-59
2022/08/12 08:07:26;;;;;;;;;7.50;7.00;;;;;25.75;29.46;100930.75;5068727;27;45247;-58
2022/08/12 08:09:56;;;;;;;;;13.50;9.25;;;;;25.82;29.06;100932.91;5072536;27;45581;-59
2022/08/12 08:15:06;;;;;;;;;11.75;8.25;;;;;25.94;28.88;100931.81;5070120;27;45681;-60
2022/08/12 08:17:31;;;;;;;;;10.00;8.50;;;;;26.01;29.37;100935.66;5072110;27;45236;-59
2022/08/12 08:19:57;;;;;;;;;9.00;7.00;;;;;26.07;29.14;100935.09;5070709;27;60992;-59
2022/08/12 08:22:23;;;;;;;;;9.00;9.00;;;;;26.13;28.88;100933.69;5074659;27;46414;-59
2022/08/12 08:24:56;;;;;;;;;8.75;8.75;;;;;26.19;28.77;100941.22;5065152;28;45591;-59
2022/08/12 08:27:22;;;;;;;;;11.25;8.50;;;;;26.25;28.89;100937.13;5054522;28;45425;-59
2022/08/12 08:29:47;;;;;;;;;10.50;8.00;;;;;26.31;29.16;100948.16;5075935;27;45672;-59
2022/08/12 08:32:13;;;;;;;;;8.75;8.75;;;;;26.37;28.33;100946.75;5069322;28;75597;-59
2022/08/12 08:34:39;;;;;;;;;11.75;8.00;;;;;26.45;28.37;100943.34;5071926;27;45463;-59
2022/08/12 08:37:05;;;;;;;;;11.75;8.25;;;;;26.50;28.30;100941.94;5069061;27;45283;-59
2022/08/12 08:39:31;;;;;;;;;10.00;9.25;;;;;26.57;28.13;100938.72;5072737;27;45711;-59
2022/08/12 08:44:41;;;;;;;;;11.00;9.25;;;;;26.72;28.37;100937.34;5070769;27;45822;-59
2022/08/12 08:47:08;;;;;;;;;8.25;6.00;;;;;26.79;28.70;100938.47;5074815;27;45421;-59
2022/08/12 08:49:37;;;;;;;;;10.50;9.75;;;;;26.86;28.22;100936.03;5067248;27;45504;-59
2022/08/12 08:52:03;;;;;;;;;8.00;7.25;;;;;26.93;28.10;100937.16;5085728;27;47152;-58
2022/08/12 08:54:32;;;;;;;;;11.25;10.00;;;;;27.00;28.25;100946.38;5072556;27;45498;-58
2022/08/12 08:57:00;;;;;;;;;8.75;8.00;;;;;27.06;28.19;100936.88;5076158;28;45390;-56
2022/08/12 08:59:26;;;;;;;;;9.00;7.75;;;;;27.13;27.00;100937.13;5060590;28;45533;-57
2022/08/12 09:01:52;;;;;;;;;10.00;7.50;;;;;27.22;26.96;100942.50;5070089;28;45268;-57
2022/08/12 09:04:19;;;;;;;;;10.75;8.00;;;;;27.30;27.30;100936.41;5078282;27;45252;-56
2022/08/12 09:06:46;;;;;;;;;9.25;9.00;;;;;27.37;26.68;100932.16;5078206;27;45357;-56
2022/08/12 09:09:13;;;;;;;;;7.25;6.00;;;;;27.45;26.72;100932.28;5069493;27;45564;-56
2022/08/12 09:14:22;;;;;;;;;7.75;5.00;;;;;27.70;26.00;100926.38;5069381;27;45833;-53
2022/08/12 09:16:49;;;;;;;;;7.50;6.25;;;;;27.86;26.50;100926.59;5070328;28;45486;-53
2022/08/12 09:19:17;;;;;;;;;7.00;6.75;;;;;28.08;26.52;100930.72;5079096;27;45533;-56
2022/08/12 09:21:47;;;;;;;;;8.00;7.00;;;;;28.43;25.42;100936.31;5070753;27;45352;-54
2022/08/12 09:24:17;;;;;;;;;8.00;6.75;;;;;28.89;25.51;100929.00;5068665;27;45738;-54
2022/08/12 09:26:44;;;;;;;;;10.50;7.25;;;;;29.49;24.35;100929.09;5081687;27;45397;-55
2022/08/12 09:29:12;;;;;;;;;7.75;7.75;;;;;30.19;24.29;100921.78;5064076;27;45491;-55
2022/08/12 09:31:40;;;;;;;;;8.00;7.00;;;;;31.00;23.37;100925.63;5072182;27;45785;-54
2022/08/12 09:34:09;;;;;;;;;8.75;6.50;;;;;31.83;22.91;100923.56;5064901;28;45219;-54
2022/08/12 09:36:37;;;;;;;;;8.00;7.50;;;;;32.81;22.22;100924.81;5086013;27;45504;-54
2022/08/12 09:39:03;;;;;;;;;10.25;7.00;;;;;33.78;20.30;100929.41;5072835;28;45434;-55
2022/08/12 09:41:37;;;;;;;;;7.50;6.00;;;;;34.74;20.00;100915.63;5078070;27;46911;-55
2022/08/12 09:46:46;;;;;;;;;7.50;6.00;;;;;36.40;17.27;100920.28;5071801;28;45269;-56
2022/08/12 09:49:11;;;;;;;;;6.00;6.00;;;;;37.18;18.79;100917.78;5060330;28;64694;-57
2022/08/12 09:51:37;;;;;;;;;6.00;6.00;;;;;37.98;18.21;100913.94;5085831;27;69370;-56
2022/08/12 09:54:03;;;;;;;;;7.00;7.00;;;;;38.76;16.96;100915.53;5079430;27;45508;-56
2022/08/12 09:56:31;;;;;;;;;8.25;6.50;;;;;39.52;17.90;100910.78;5073687;28;45331;-57
2022/08/12 09:58:56;;;;;;;;;6.25;6.25;;;;;40.20;15.15;100911.59;5084352;27;45281;-54
2022/08/12 10:01:23;;;;;;;;;6.00;6.00;;;;;40.77;13.52;100900.97;5064554;28;45362;-54
2022/08/12 10:03:48;;;;;;;;;8.00;6.00;;;;;41.40;14.99;100904.06;5077792;28;45421;-49
2022/08/12 10:06:13;;;;;;;;;2.00;2.00;;;;;42.14;13.83;100897.00;5069167;27;45679;-55
2022/08/12 10:08:39;;;;;;;;;7.00;6.00;;;;;42.83;13.41;100896.75;5066045;27;73306;-54
2022/08/12 10:13:51;;;;;;;;;4.75;4.75;;;;;44.06;11.45;100887.31;5073728;28;45872;-56
2022/08/12 10:16:21;;;;;;;;;6.00;6.00;;;;;44.43;11.71;100883.78;5064236;28;45448;-55
2022/08/12 10:19:00;;;;;;;;;4.25;3.50;;;;;44.81;10.80;100884.59;5070894;28;45376;-52
2022/08/12 10:21:35;;;;;;;;;5.75;5.75;;;;;45.07;10.50;100882.84;5068823;28;46338;-54
2022/08/12 10:24:05;;;;;;;;;5.75;4.75;;;;;45.34;10.33;100876.34;5063717;27;45664;-54
2022/08/12 10:32:00;;;;;;;;;7.00;7.00;;;;;46.20;11.08;100876.78;5086872;27;45669;-50
2022/08/12 10:34:26;;;;;;;;;5.50;5.50;;;;;46.57;11.86;100868.22;5070742;27;45280;-55
2022/08/12 10:36:57;;;;;;;;;5.25;5.25;;;;;46.79;9.65;100867.88;5071364;27;45395;-53
2022/08/12 10:39:24;;;;;;;;;8.25;8.25;;;;;46.98;9.53;100867.28;5076677;27;45323;-53
2022/08/12 10:44:35;;;;;;;;;6.75;5.50;;;;;47.66;10.34;100860.34;5071222;28;45451;-56
2022/08/12 10:47:01;;;;;;;;;5.00;5.00;;;;;47.94;10.44;100867.06;5075410;28;45455;-51
2022/08/12 10:49:30;;;;;;;;;6.00;6.00;;;;;48.10;9.36;100865.84;5065515;27;46019;-54
2022/08/12 10:51:56;;;;;;;;;5.00;5.00;;;;;48.18;8.20;100858.84;5072487;27;45422;-57
2022/08/12 10:54:22;;;;;;;;;5.00;5.00;;;;;48.04;8.64;100852.31;5076419;27;45354;-55
2022/08/12 10:56:48;;;;;;;;;7.00;7.00;;;;;48.02;8.99;100846.22;5078089;27;45305;-57
2022/08/12 10:59:15;;;;;;;;;4.75;4.75;;;;;48.09;9.64;100836.44;5066863;27;45397;-54
2022/08/12 11:01:41;;;;;;;;;5.75;5.75;;;;;48.16;9.05;100838.88;5067640;28;46548;-54
2022/08/12 11:04:09;;;;;;;;;4.75;3.00;;;;;48.05;8.52;100840.09;5070874;28;46055;-56
2022/08/12 11:06:36;;;;;;;;;7.00;7.00;;;;;47.39;8.56;100839.41;5066346;27;45339;-57
2022/08/12 11:09:01;;;;;;;;;6.75;5.75;;;;;46.36;10.28;100844.41;5061488;28;45383;-54
2022/08/12 11:11:27;;;;;;;;;7.50;6.75;;;;;45.25;9.88;100839.25;5070539;28;56074;-56
2022/08/12 11:13:52;;;;;;;;;5.25;5.25;;;;;44.35;10.50;100834.59;5064693;27;70083;-54
2022/08/12 11:16:18;;;;;;;;;7.25;5.00;;;;;43.50;10.38;100839.84;5061929;27;45427;-52
2022/08/12 11:18:44;;;;;;;;;8.50;6.75;;;;;42.64;11.07;100825.50;5072888;27;45171;-52
2022/08/12 11:21:09;;;;;;;;;4.00;4.00;;;;;41.86;11.70;100819.81;5074901;27;46167;-51
2022/08/12 11:23:34;;;;;;;;;5.25;5.25;;;;;41.27;11.99;100820.03;5078264;27;45404;-50
2022/08/12 11:26:00;;;;;;;;;13.75;6.75;;;;;40.77;11.92;100802.19;5072630;27;45314;-52
2022/08/12 11:28:25;;;;;;;;;19.50;8.50;;;;;40.20;12.21;100801.94;5073174;28;45579;-49
2022/08/12 11:30:51;;;;;;;;;6.25;5.50;;;;;39.68;12.76;100799.75;5075995;27;47253;-50
2022/08/12 11:33:16;;;;;;;;;7.00;6.25;;;;;39.22;12.95;100806.66;5066007;28;49866;-51
2022/08/12 11:35:42;;;;;;;;;6.50;4.00;;;;;38.87;13.07;100799.91;5072351;27;66694;-54
2022/08/12 11:38:08;;;;;;;;;7.00;7.00;;;;;38.53;13.38;100796.66;5064423;28;45572;-51
2022/08/12 11:40:33;;;;;;;;;6.00;6.00;;;;;38.29;13.82;100783.84;5069773;27;45477;-49
2022/08/12 11:42:59;;;;;;;;;5.25;5.00;;;;;38.21;13.39;100801.34;5076840;28;45474;-51
2022/08/12 11:45:29;;;;;;;;;6.50;5.50;;;;;38.32;13.46;100791.56;5074400;27;45482;-49
2022/08/12 11:47:55;;;;;;;;;5.00;4.00;;;;;38.54;13.25;100805.69;5074828;27;45195;-50
2022/08/12 11:50:21;;;;;;;;;4.00;4.00;;;;;38.66;13.27;100792.13;5075229;28;46048;-50
2022/08/12 11:52:48;;;;;;;;;4.75;4.75;;;;;38.60;13.41;100795.75;5076242;27;45219;-47
2022/08/12 11:55:14;;;;;;;;;7.00;5.50;;;;;38.42;13.44;100785.59;5077745;27;45325;-50
2022/08/12 11:57:54;;;;;;;;;5.00;5.00;;;;;38.17;13.28;100772.78;5069407;27;45475;-48
2022/08/12 12:00:20;;;;;;;;;7.00;7.00;;;;;38.01;13.90;100779.63;5052784;28;45461;-49
2022/08/12 12:02:46;;;;;;;;;9.50;6.75;;;;;37.84;13.67;100783.94;5070041;27;45491;-52
2022/08/12 12:05:13;;;;;;;;;5.00;5.00;;;;;37.68;14.27;100774.38;5067244;27;45209;-47
2022/08/12 12:07:40;;;;;;;;;5.75;5.00;;;;;37.54;13.93;100770.88;5072919;27;45460;-49
2022/08/12 12:10:05;;;;;;;;;6.50;6.50;;;;;37.37;14.36;100774.13;5072891;28;48531;-50
2022/08/12 12:12:31;;;;;;;;;5.25;5.00;;;;;37.17;14.34;100770.66;5068900;27;45668;-48
2022/08/12 12:14:57;;;;;;;;;8.00;6.00;;;;;37.01;14.13;100770.06;5073015;28;45483;-51
2022/08/12 12:17:23;;;;;;;;;5.00;4.75;;;;;36.82;14.54;100762.78;5069412;27;45641;-51
2022/08/12 12:19:49;;;;;;;;;5.25;4.50;;;;;36.65;14.48;100759.63;5080327;27;45267;-49
2022/08/12 12:22:14;;;;;;;;;5.50;4.50;;;;;36.53;14.46;100764.06;5063630;28;45385;-50
2022/08/12 12:24:46;;;;;;;;;4.50;4.50;;;;;36.41;14.35;100761.16;5073257;28;61386;-51
2022/08/12 12:27:12;;;;;;;;;5.25;5.25;;;;;36.35;14.88;100754.63;5073925;27;45648;-52
2022/08/12 12:29:37;;;;;;;;;5.50;5.50;;;;;36.29;14.96;100752.78;5071063;27;46057;-53
2022/08/12 12:32:02;;;;;;;;;4.50;4.00;;;;;36.26;15.30;100755.91;5066279;27;70728;-48
2022/08/12 12:34:28;;;;;;;;;8.00;5.75;;;;;36.22;15.10;100750.03;5063343;27;45316;-50
2022/08/12 12:36:53;;;;;;;;;8.75;7.25;;;;;36.22;14.68;100755.50;5070035;28;64335;-48
2022/08/12 12:39:18;;;;;;;;;7.75;6.50;;;;;36.32;15.30;100743.31;5072237;27;47459;-52
2022/08/12 12:41:44;;;;;;;;;7.50;7.50;;;;;36.43;14.96;100743.53;5076216;28;63356;-53
2022/08/12 12:44:09;;;;;;;;;6.75;6.25;;;;;36.59;14.87;100755.03;5063793;27;69595;-52
2022/08/12 12:46:34;;;;;;;;;6.00;6.00;;;;;36.67;15.09;100743.88;5068509;28;65826;-49
2022/08/12 12:49:00;;;;;;;;;6.00;6.00;;;;;36.70;15.11;100746.22;5072655;27;46676;-51
2022/08/12 12:51:25;;;;;;;;;5.00;5.00;;;;;36.65;14.81;100738.66;5063385;28;70779;-52
2022/08/12 12:53:51;;;;;;;;;7.75;5.75;;;;;36.57;14.22;100738.88;5061925;28;45355;-50
2022/08/12 12:56:21;;;;;;;;;5.75;5.00;;;;;36.46;14.74;100747.69;5069815;27;45703;-47
2022/08/12 12:58:50;;;;;;;;;7.50;6.75;;;;;36.33;14.58;100737.66;5075516;27;47460;-49
2022/08/12 13:01:17;;;;;;;;;7.25;5.00;;;;;36.20;14.44;100740.41;5077801;27;45620;-52
2022/08/12 13:03:44;;;;;;;;;5.50;5.00;;;;;36.09;14.64;100733.69;5069710;27;45298;-49
2022/08/12 13:06:11;;;;;;;;;7.75;6.00;;;;;35.96;14.86;100737.22;5067550;27;45645;-49
2022/08/12 13:08:36;;;;;;;;;7.75;7.75;;;;;35.81;15.28;100723.00;5070356;28;45856;-48
2022/08/12 13:11:03;;;;;;;;;7.00;6.25;;;;;35.76;15.30;100720.88;5077194;27;72861;-48
2022/08/12 13:13:31;;;;;;;;;4.75;4.25;;;;;35.68;15.20;100729.22;5074870;27;45292;-50
2022/08/12 13:16:00;;;;;;;;;6.25;6.00;;;;;35.65;15.32;100726.94;5093975;27;45332;-47